sensor_id;sensor_type;location;lat;lon;timestamp;temperature;humidity
70368;DHT22;57789;53.868;10.728;2023-04-07T00:01:44;4.90;99.90
70368;DHT22;57789;53.868;10.728;2023-04-07T00:04:10;4.90;99.90
70368;DHT22;57789;53.868;10.728;2023-04-07T00:06:36;4.80;99.90
70368;DHT22;57789;53.868;10.728;2023-04-07T00:09:02;4.90;99.90
70368;DHT22;57789;53.868;10.728;2023-04-07T00:11:27;4.80;99.90
70368;DHT22;57789;53.868;10.728;2023-04-07T00:13:53;4.80;99.90
70368;DHT22;57789;53.868;10.728;2023-04-07T00:16:19;4.80;99.90
70368;DHT22;57789;53.868;10.728;2023-04-07T00:18:45;4.80;99.90
70368;DHT22;57789;53.868;10.728;2023-04-07T00:21:11;4.70;99.90
70368;DHT22;57789;53.868;10.728;2023-04-07T00:23:37;4.70;99.90
70368;DHT22;57789;53.868;10.728;2023-04-07T00:26:02;4.60;99.90
70368;DHT22;57789;53.868;10.728;2023-04-07T00:28:28;4.70;99.90
70368;DHT22;57789;53.868;10.728;2023-04-07T00:30:54;4.60;99.90
70368;DHT22;57789;53.868;10.728;2023-04-07T00:33:19;4.60;99.90
70368;DHT22;57789;53.868;10.728;2023-04-07T00:35:45;4.50;99.90
70368;DHT22;57789;53.868;10.728;2023-04-07T00:38:11;4.60;99.90
70368;DHT22;57789;53.868;10.728;2023-04-07T00:40:37;4.60;99.90
70368;DHT22;57789;53.868;10.728;2023-04-07T00:43:03;4.50;99.90
70368;DHT22;57789;53.868;10.728;2023-04-07T00:45:28;4.50;99.90
70368;DHT22;57789;53.868;10.728;2023-04-07T00:47:56;4.40;99.90
70368;DHT22;57789;53.868;10.728;2023-04-07T00:50:22;4.40;99.90
70368;DHT22;57789;53.868;10.728;2023-04-07T00:52:48;4.40;99.90
70368;DHT22;57789;53.868;10.728;2023-04-07T00:55:14;4.40;99.90
70368;DHT22;57789;53.868;10.728;2023-04-07T00:57:40;4.30;99.90
70368;DHT22;57789;53.868;10.728;2023-04-07T01:00:07;4.30;99.90
70368;DHT22;57789;53.868;10.728;2023-04-07T01:02:40;4.30;99.90
70368;DHT22;57789;53.868;10.728;2023-04-07T01:05:36;4.30;99.90
70368;DHT22;57789;53.868;10.728;2023-04-07T01:08:07;4.30;99.90
70368;DHT22;57789;53.868;10.728;2023-04-07T01:10:51;4.40;99.90
70368;DHT22;57789;53.868;10.728;2023-04-07T01:13:51;4.30;99.90
70368;DHT22;57789;53.868;10.728;2023-04-07T01:16:30;4.30;99.90
70368;DHT22;57789;53.868;10.728;2023-04-07T01:19:03;4.30;99.90
70368;DHT22;57789;53.868;10.728;2023-04-07T01:21:33;4.20;99.90
70368;DHT22;57789;53.868;10.728;2023-04-07T01:24:22;4.20;99.90
70368;DHT22;57789;53.868;10.728;2023-04-07T01:26:50;4.10;99.90
70368;DHT22;57789;53.868;10.728;2023-04-07T01:29:37;4.10;99.90
70368;DHT22;57789;53.868;10.728;2023-04-07T01:32:08;4.10;99.90
70368;DHT22;57789;53.868;10.728;2023-04-07T01:34:36;4.00;99.90
70368;DHT22;57789;53.868;10.728;2023-04-07T01:37:06;3.90;99.90
70368;DHT22;57789;53.868;10.728;2023-04-07T01:39:32;3.90;99.90
70368;DHT22;57789;53.868;10.728;2023-04-07T01:41:59;3.80;99.90
70368;DHT22;57789;53.868;10.728;2023-04-07T01:44:27;3.80;99.90
70368;DHT22;57789;53.868;10.728;2023-04-07T01:46:53;3.70;99.90
70368;DHT22;57789;53.868;10.728;2023-04-07T01:49:20;3.70;99.90
70368;DHT22;57789;53.868;10.728;2023-04-07T01:51:48;3.70;99.90
70368;DHT22;57789;53.868;10.728;2023-04-07T01:54:15;3.60;99.90
70368;DHT22;57789;53.868;10.728;2023-04-07T01:56:43;3.60;99.90
70368;DHT22;57789;53.868;10.728;2023-04-07T01:59:09;3.60;99.90
70368;DHT22;57789;53.868;10.728;2023-04-07T02:01:35;3.50;99.90
70368;DHT22;57789;53.868;10.728;2023-04-07T02:04:13;3.50;99.90
70368;DHT22;57789;53.868;10.728;2023-04-07T02:06:49;3.40;99.90
70368;DHT22;57789;53.868;10.728;2023-04-07T02:09:20;3.40;99.90
70368;DHT22;57789;53.868;10.728;2023-04-07T02:11:47;3.40;99.90
70368;DHT22;57789;53.868;10.728;2023-04-07T02:14:14;3.30;99.90
70368;DHT22;57789;53.868;10.728;2023-04-07T02:16:42;3.30;99.90
70368;DHT22;57789;53.868;10.728;2023-04-07T02:19:10;3.30;99.90
70368;DHT22;57789;53.868;10.728;2023-04-07T02:21:36;3.20;99.90
70368;DHT22;57789;53.868;10.728;2023-04-07T02:24:05;3.20;99.90
70368;DHT22;57789;53.868;10.728;2023-04-07T02:26:35;3.20;99.90
70368;DHT22;57789;53.868;10.728;2023-04-07T02:29:02;3.20;99.90
70368;DHT22;57789;53.868;10.728;2023-04-07T02:31:27;3.10;99.90
70368;DHT22;57789;53.868;10.728;2023-04-07T02:33:53;3.10;99.90
70368;DHT22;57789;53.868;10.728;2023-04-07T02:36:19;3.00;99.90
70368;DHT22;57789;53.868;10.728;2023-04-07T02:38:44;3.00;99.90
70368;DHT22;57789;53.868;10.728;2023-04-07T02:41:10;3.00;99.90
70368;DHT22;57789;53.868;10.728;2023-04-07T02:43:36;3.00;99.90
70368;DHT22;57789;53.868;10.728;2023-04-07T02:46:01;2.90;99.90
70368;DHT22;57789;53.868;10.728;2023-04-07T02:48:27;2.90;99.90
70368;DHT22;57789;53.868;10.728;2023-04-07T02:50:53;2.90;99.90
70368;DHT22;57789;53.868;10.728;2023-04-07T02:53:18;2.80;99.90
70368;DHT22;57789;53.868;10.728;2023-04-07T02:55:45;2.90;99.90
70368;DHT22;57789;53.868;10.728;2023-04-07T02:58:10;2.90;99.90
70368;DHT22;57789;53.868;10.728;2023-04-07T03:00:36;2.90;99.90
70368;DHT22;57789;53.868;10.728;2023-04-07T03:03:02;2.80;99.90
70368;DHT22;57789;53.868;10.728;2023-04-07T03:05:27;2.80;99.90
70368;DHT22;57789;53.868;10.728;2023-04-07T03:07:53;2.70;99.90
70368;DHT22;57789;53.868;10.728;2023-04-07T03:10:19;2.70;99.90
70368;DHT22;57789;53.868;10.728;2023-04-07T03:12:44;2.70;99.90
70368;DHT22;57789;53.868;10.728;2023-04-07T03:15:10;2.70;99.90
70368;DHT22;57789;53.868;10.728;2023-04-07T03:17:36;2.70;99.90
70368;DHT22;57789;53.868;10.728;2023-04-07T03:20:01;2.60;99.90
70368;DHT22;57789;53.868;10.728;2023-04-07T03:22:27;2.60;99.90
70368;DHT22;57789;53.868;10.728;2023-04-07T03:24:53;2.60;99.90
70368;DHT22;57789;53.868;10.728;2023-04-07T03:27:19;2.60;99.90
70368;DHT22;57789;53.868;10.728;2023-04-07T03:29:45;2.60;99.90
70368;DHT22;57789;53.868;10.728;2023-04-07T03:32:11;2.50;99.90
70368;DHT22;57789;53.868;10.728;2023-04-07T03:34:37;2.50;99.90
70368;DHT22;57789;53.868;10.728;2023-04-07T03:37:03;2.50;99.90
70368;DHT22;57789;53.868;10.728;2023-04-07T03:39:28;2.50;99.90
70368;DHT22;57789;53.868;10.728;2023-04-07T03:41:56;2.40;99.90
70368;DHT22;57789;53.868;10.728;2023-04-07T03:44:22;2.40;99.90
70368;DHT22;57789;53.868;10.728;2023-04-07T03:46:48;2.40;99.90
70368;DHT22;57789;53.868;10.728;2023-04-07T03:49:15;2.40;99.90
70368;DHT22;57789;53.868;10.728;2023-04-07T03:51:41;2.40;99.90
70368;DHT22;57789;53.868;10.728;2023-04-07T03:54:06;2.30;99.90
70368;DHT22;57789;53.868;10.728;2023-04-07T03:56:32;2.30;99.90
70368;DHT22;57789;53.868;10.728;2023-04-07T03:58:58;2.30;99.90
70368;DHT22;57789;53.868;10.728;2023-04-07T04:01:25;2.30;99.90
70368;DHT22;57789;53.868;10.728;2023-04-07T04:03:50;2.30;99.90
70368;DHT22;57789;53.868;10.728;2023-04-07T04:06:16;2.30;99.90
70368;DHT22;57789;53.868;10.728;2023-04-07T04:08:41;2.30;99.90
70368;DHT22;57789;53.868;10.728;2023-04-07T04:11:07;2.30;99.90
70368;DHT22;57789;53.868;10.728;2023-04-07T04:13:33;2.20;99.90
70368;DHT22;57789;53.868;10.728;2023-04-07T04:15:59;2.20;99.90
70368;DHT22;57789;53.868;10.728;2023-04-07T04:18:24;2.20;99.90
70368;DHT22;57789;53.868;10.728;2023-04-07T04:20:50;2.10;99.90
70368;DHT22;57789;53.868;10.728;2023-04-07T04:23:19;2.10;99.90
70368;DHT22;57789;53.868;10.728;2023-04-07T04:25:44;2.10;99.90
70368;DHT22;57789;53.868;10.728;2023-04-07T04:28:10;2.10;99.90
70368;DHT22;57789;53.868;10.728;2023-04-07T04:30:36;2.10;99.90
70368;DHT22;57789;53.868;10.728;2023-04-07T04:33:01;2.10;99.90
70368;DHT22;57789;53.868;10.728;2023-04-07T04:35:27;2.10;99.90
70368;DHT22;57789;53.868;10.728;2023-04-07T04:37:54;2.00;99.90
70368;DHT22;57789;53.868;10.728;2023-04-07T04:40:19;2.00;99.90
70368;DHT22;57789;53.868;10.728;2023-04-07T04:42:45;2.00;99.90
70368;DHT22;57789;53.868;10.728;2023-04-07T04:45:11;2.00;99.90
70368;DHT22;57789;53.868;10.728;2023-04-07T04:47:36;2.00;99.90
70368;DHT22;57789;53.868;10.728;2023-04-07T04:50:05;2.10;99.90
70368;DHT22;57789;53.868;10.728;2023-04-07T04:52:31;2.00;99.90
70368;DHT22;57789;53.868;10.728;2023-04-07T04:54:56;2.10;99.90
70368;DHT22;57789;53.868;10.728;2023-04-07T04:57:22;2.00;99.90
70368;DHT22;57789;53.868;10.728;2023-04-07T04:59:47;2.10;99.90
70368;DHT22;57789;53.868;10.728;2023-04-07T05:02:13;2.10;99.90
70368;DHT22;57789;53.868;10.728;2023-04-07T05:04:39;2.10;99.90
70368;DHT22;57789;53.868;10.728;2023-04-07T05:07:05;2.20;99.90
70368;DHT22;57789;53.868;10.728;2023-04-07T05:09:31;2.20;99.90
70368;DHT22;57789;53.868;10.728;2023-04-07T05:11:56;2.20;99.90
70368;DHT22;57789;53.868;10.728;2023-04-07T05:14:22;2.20;99.90
70368;DHT22;57789;53.868;10.728;2023-04-07T05:16:48;2.20;99.90
70368;DHT22;57789;53.868;10.728;2023-04-07T05:19:14;2.30;99.90
70368;DHT22;57789;53.868;10.728;2023-04-07T05:21:40;2.30;99.90
70368;DHT22;57789;53.868;10.728;2023-04-07T05:24:05;2.30;99.90
70368;DHT22;57789;53.868;10.728;2023-04-07T05:26:31;2.40;99.90
70368;DHT22;57789;53.868;10.728;2023-04-07T05:28:57;2.40;99.90
70368;DHT22;57789;53.868;10.728;2023-04-07T05:31:23;2.40;99.90
70368;DHT22;57789;53.868;10.728;2023-04-07T05:33:48;2.50;99.90
70368;DHT22;57789;53.868;10.728;2023-04-07T05:36:14;2.50;99.90
70368;DHT22;57789;53.868;10.728;2023-04-07T05:38:40;2.60;99.90
70368;DHT22;57789;53.868;10.728;2023-04-07T05:41:06;2.70;99.90
70368;DHT22;57789;53.868;10.728;2023-04-07T05:43:31;2.70;99.90
70368;DHT22;57789;53.868;10.728;2023-04-07T05:45:57;2.80;99.90
70368;DHT22;57789;53.868;10.728;2023-04-07T05:48:23;2.90;99.90
70368;DHT22;57789;53.868;10.728;2023-04-07T05:50:48;3.00;99.90
70368;DHT22;57789;53.868;10.728;2023-04-07T05:53:14;3.00;99.90
70368;DHT22;57789;53.868;10.728;2023-04-07T05:55:43;3.10;99.90
70368;DHT22;57789;53.868;10.728;2023-04-07T05:58:09;3.10;99.90
70368;DHT22;57789;53.868;10.728;2023-04-07T06:00:38;3.20;99.90
70368;DHT22;57789;53.868;10.728;2023-04-07T06:03:04;3.20;99.90
70368;DHT22;57789;53.868;10.728;2023-04-07T06:05:30;3.30;99.90
70368;DHT22;57789;53.868;10.728;2023-04-07T06:07:56;3.40;99.90
70368;DHT22;57789;53.868;10.728;2023-04-07T06:10:21;3.40;99.90
70368;DHT22;57789;53.868;10.728;2023-04-07T06:12:47;3.40;99.90
70368;DHT22;57789;53.868;10.728;2023-04-07T06:15:13;3.50;99.90
70368;DHT22;57789;53.868;10.728;2023-04-07T06:17:38;3.60;99.90
70368;DHT22;57789;53.868;10.728;2023-04-07T06:20:04;3.60;99.90
70368;DHT22;57789;53.868;10.728;2023-04-07T06:22:30;3.70;99.90
70368;DHT22;57789;53.868;10.728;2023-04-07T06:24:56;3.80;99.90
70368;DHT22;57789;53.868;10.728;2023-04-07T06:27:22;3.80;99.90
70368;DHT22;57789;53.868;10.728;2023-04-07T06:29:47;3.90;99.90
70368;DHT22;57789;53.868;10.728;2023-04-07T06:32:13;4.00;99.90
70368;DHT22;57789;53.868;10.728;2023-04-07T06:34:39;4.00;99.90
70368;DHT22;57789;53.868;10.728;2023-04-07T06:37:05;4.10;99.90
70368;DHT22;57789;53.868;10.728;2023-04-07T06:39:31;4.20;99.90
70368;DHT22;57789;53.868;10.728;2023-04-07T06:41:57;4.30;99.90
70368;DHT22;57789;53.868;10.728;2023-04-07T06:44:25;4.40;99.90
70368;DHT22;57789;53.868;10.728;2023-04-07T06:50:13;4.60;99.90
70368;DHT22;57789;53.868;10.728;2023-04-07T06:52:47;4.70;99.90
70368;DHT22;57789;53.868;10.728;2023-04-07T06:55:16;4.80;99.90
70368;DHT22;57789;53.868;10.728;2023-04-07T06:57:44;4.90;99.90
70368;DHT22;57789;53.868;10.728;2023-04-07T07:00:11;5.00;99.90
70368;DHT22;57789;53.868;10.728;2023-04-07T07:02:37;5.10;99.90
70368;DHT22;57789;53.868;10.728;2023-04-07T07:05:05;5.20;99.90
70368;DHT22;57789;53.868;10.728;2023-04-07T07:07:39;5.40;99.90
70368;DHT22;57789;53.868;10.728;2023-04-07T07:10:07;5.50;99.90
70368;DHT22;57789;53.868;10.728;2023-04-07T07:12:33;5.50;99.90
70368;DHT22;57789;53.868;10.728;2023-04-07T07:14:59;5.60;99.90
70368;DHT22;57789;53.868;10.728;2023-04-07T07:17:25;5.60;99.90
70368;DHT22;57789;53.868;10.728;2023-04-07T07:19:51;5.70;99.90
70368;DHT22;57789;53.868;10.728;2023-04-07T07:22:16;5.80;99.90
70368;DHT22;57789;53.868;10.728;2023-04-07T07:24:42;5.80;99.90
70368;DHT22;57789;53.868;10.728;2023-04-07T07:27:11;5.80;99.90
70368;DHT22;57789;53.868;10.728;2023-04-07T07:29:39;5.80;99.90
70368;DHT22;57789;53.868;10.728;2023-04-07T07:32:09;5.80;99.90
70368;DHT22;57789;53.868;10.728;2023-04-07T07:34:40;5.80;99.90
70368;DHT22;57789;53.868;10.728;2023-04-07T07:37:06;5.90;99.90
70368;DHT22;57789;53.868;10.728;2023-04-07T07:39:32;6.00;99.90
70368;DHT22;57789;53.868;10.728;2023-04-07T07:41:58;6.10;99.90
70368;DHT22;57789;53.868;10.728;2023-04-07T07:44:24;6.20;99.90
70368;DHT22;57789;53.868;10.728;2023-04-07T07:46:50;6.30;99.90
70368;DHT22;57789;53.868;10.728;2023-04-07T07:49:17;6.30;99.90
70368;DHT22;57789;53.868;10.728;2023-04-07T07:51:43;6.40;99.90
70368;DHT22;57789;53.868;10.728;2023-04-07T07:54:15;6.60;99.90
70368;DHT22;57789;53.868;10.728;2023-04-07T07:56:46;6.60;99.90
70368;DHT22;57789;53.868;10.728;2023-04-07T07:59:11;6.80;99.90
70368;DHT22;57789;53.868;10.728;2023-04-07T08:01:37;6.80;99.90
70368;DHT22;57789;53.868;10.728;2023-04-07T08:04:03;6.90;99.90
70368;DHT22;57789;53.868;10.728;2023-04-07T08:06:28;7.10;99.90
70368;DHT22;57789;53.868;10.728;2023-04-07T08:08:55;7.20;99.90
70368;DHT22;57789;53.868;10.728;2023-04-07T08:11:22;7.30;99.90
70368;DHT22;57789;53.868;10.728;2023-04-07T08:13:47;7.40;99.90
70368;DHT22;57789;53.868;10.728;2023-04-07T08:16:14;7.50;99.90
70368;DHT22;57789;53.868;10.728;2023-04-07T08:18:40;7.60;99.90
70368;DHT22;57789;53.868;10.728;2023-04-07T08:21:06;7.80;99.90
70368;DHT22;57789;53.868;10.728;2023-04-07T08:23:31;7.80;99.90
70368;DHT22;57789;53.868;10.728;2023-04-07T08:25:57;7.90;99.90
70368;DHT22;57789;53.868;10.728;2023-04-07T08:28:24;8.00;99.90
70368;DHT22;57789;53.868;10.728;2023-04-07T08:30:50;8.00;99.90
70368;DHT22;57789;53.868;10.728;2023-04-07T08:33:15;8.00;99.90
70368;DHT22;57789;53.868;10.728;2023-04-07T08:35:41;7.90;99.90
70368;DHT22;57789;53.868;10.728;2023-04-07T08:38:07;8.00;99.90
70368;DHT22;57789;53.868;10.728;2023-04-07T08:40:34;8.10;99.90
70368;DHT22;57789;53.868;10.728;2023-04-07T08:43:05;8.10;99.90
70368;DHT22;57789;53.868;10.728;2023-04-07T08:45:33;8.30;99.90
70368;DHT22;57789;53.868;10.728;2023-04-07T08:48:02;8.40;99.90
70368;DHT22;57789;53.868;10.728;2023-04-07T08:50:29;8.60;99.90
70368;DHT22;57789;53.868;10.728;2023-04-07T08:52:57;8.70;99.90
70368;DHT22;57789;53.868;10.728;2023-04-07T08:55:25;8.80;99.90
70368;DHT22;57789;53.868;10.728;2023-04-07T08:57:52;9.10;99.90
70368;DHT22;57789;53.868;10.728;2023-04-07T09:00:17;9.20;99.90
70368;DHT22;57789;53.868;10.728;2023-04-07T09:02:46;9.40;99.90
70368;DHT22;57789;53.868;10.728;2023-04-07T09:05:13;9.50;99.90
70368;DHT22;57789;53.868;10.728;2023-04-07T09:07:39;9.60;99.90
70368;DHT22;57789;53.868;10.728;2023-04-07T09:10:06;9.50;99.90
70368;DHT22;57789;53.868;10.728;2023-04-07T09:12:32;9.40;99.90
70368;DHT22;57789;53.868;10.728;2023-04-07T09:14:58;9.50;99.90
70368;DHT22;57789;53.868;10.728;2023-04-07T09:17:25;9.70;99.90
70368;DHT22;57789;53.868;10.728;2023-04-07T09:19:54;9.90;99.90
70368;DHT22;57789;53.868;10.728;2023-04-07T09:27:39;10.20;99.90
70368;DHT22;57789;53.868;10.728;2023-04-07T09:30:12;10.30;99.90
70368;DHT22;57789;53.868;10.728;2023-04-07T09:32:41;10.40;99.90
70368;DHT22;57789;53.868;10.728;2023-04-07T09:35:07;10.50;99.90
70368;DHT22;57789;53.868;10.728;2023-04-07T09:37:33;10.40;99.90
70368;DHT22;57789;53.868;10.728;2023-04-07T09:39:58;10.40;99.90
70368;DHT22;57789;53.868;10.728;2023-04-07T09:42:28;10.70;99.90
70368;DHT22;57789;53.868;10.728;2023-04-07T09:45:00;10.90;99.90
70368;DHT22;57789;53.868;10.728;2023-04-07T09:47:31;11.20;99.90
70368;DHT22;57789;53.868;10.728;2023-04-07T09:49:57;11.40;99.90
70368;DHT22;57789;53.868;10.728;2023-04-07T09:52:52;11.60;99.90
70368;DHT22;57789;53.868;10.728;2023-04-07T09:55:21;11.80;99.90
70368;DHT22;57789;53.868;10.728;2023-04-07T09:57:51;11.80;99.90
70368;DHT22;57789;53.868;10.728;2023-04-07T10:00:17;11.90;99.90
70368;DHT22;57789;53.868;10.728;2023-04-07T10:02:43;11.90;99.90
70368;DHT22;57789;53.868;10.728;2023-04-07T10:05:10;11.70;99.90
70368;DHT22;57789;53.868;10.728;2023-04-07T10:07:36;11.60;99.90
70368;DHT22;57789;53.868;10.728;2023-04-07T10:10:05;11.70;99.90
70368;DHT22;57789;53.868;10.728;2023-04-07T10:12:37;11.80;99.90
70368;DHT22;57789;53.868;10.728;2023-04-07T10:15:03;11.90;99.90
70368;DHT22;57789;53.868;10.728;2023-04-07T10:17:30;12.00;99.90
70368;DHT22;57789;53.868;10.728;2023-04-07T10:20:01;11.80;99.90
70368;DHT22;57789;53.868;10.728;2023-04-07T10:22:29;11.70;99.90
70368;DHT22;57789;53.868;10.728;2023-04-07T10:24:59;11.70;99.90
70368;DHT22;57789;53.868;10.728;2023-04-07T10:27:35;11.80;99.90
70368;DHT22;57789;53.868;10.728;2023-04-07T10:30:04;11.60;99.90
70368;DHT22;57789;53.868;10.728;2023-04-07T10:32:31;11.60;99.90
70368;DHT22;57789;53.868;10.728;2023-04-07T10:34:58;11.60;99.90
70368;DHT22;57789;53.868;10.728;2023-04-07T10:37:25;11.80;99.90
70368;DHT22;57789;53.868;10.728;2023-04-07T10:40:26;12.20;99.90
70368;DHT22;57789;53.868;10.728;2023-04-07T10:42:52;12.10;99.90
70368;DHT22;57789;53.868;10.728;2023-04-07T10:48:20;12.60;99.90
70368;DHT22;57789;53.868;10.728;2023-04-07T10:53:32;12.40;99.90
70368;DHT22;57789;53.868;10.728;2023-04-07T10:55:59;12.30;99.90
70368;DHT22;57789;53.868;10.728;2023-04-07T10:58:26;12.40;99.90
70368;DHT22;57789;53.868;10.728;2023-04-07T11:03:41;12.10;99.90
70368;DHT22;57789;53.868;10.728;2023-04-07T11:06:16;11.50;99.90
70368;DHT22;57789;53.868;10.728;2023-04-07T11:08:46;11.30;99.90
70368;DHT22;57789;53.868;10.728;2023-04-07T11:11:14;11.30;99.90
70368;DHT22;57789;53.868;10.728;2023-04-07T11:16:07;11.70;99.90
70368;DHT22;57789;53.868;10.728;2023-04-07T11:18:33;11.80;99.90
70368;DHT22;57789;53.868;10.728;2023-04-07T11:20:59;11.90;99.90
70368;DHT22;57789;53.868;10.728;2023-04-07T11:23:25;12.20;99.90
70368;DHT22;57789;53.868;10.728;2023-04-07T11:26:01;12.30;99.90
70368;DHT22;57789;53.868;10.728;2023-04-07T11:28:27;12.60;99.90
70368;DHT22;57789;53.868;10.728;2023-04-07T11:30:53;12.80;99.90
70368;DHT22;57789;53.868;10.728;2023-04-07T11:33:30;12.70;99.90
70368;DHT22;57789;53.868;10.728;2023-04-07T11:35:58;12.70;99.90
70368;DHT22;57789;53.868;10.728;2023-04-07T11:38:27;12.80;99.90
70368;DHT22;57789;53.868;10.728;2023-04-07T11:40:54;12.90;99.90
70368;DHT22;57789;53.868;10.728;2023-04-07T11:43:25;12.70;99.90
70368;DHT22;57789;53.868;10.728;2023-04-07T11:46:14;12.60;99.90
70368;DHT22;57789;53.868;10.728;2023-04-07T11:48:43;12.40;99.90
70368;DHT22;57789;53.868;10.728;2023-04-07T11:51:19;12.50;99.90
70368;DHT22;57789;53.868;10.728;2023-04-07T11:53:45;12.70;99.90
70368;DHT22;57789;53.868;10.728;2023-04-07T11:56:14;12.10;99.90
70368;DHT22;57789;53.868;10.728;2023-04-07T11:58:50;11.70;99.90
70368;DHT22;57789;53.868;10.728;2023-04-07T12:01:16;11.40;99.90
70368;DHT22;57789;53.868;10.728;2023-04-07T12:03:58;11.10;99.90
70368;DHT22;57789;53.868;10.728;2023-04-07T12:06:35;10.70;99.90
70368;DHT22;57789;53.868;10.728;2023-04-07T12:09:28;10.60;99.90
70368;DHT22;57789;53.868;10.728;2023-04-07T12:11:53;10.60;99.90
70368;DHT22;57789;53.868;10.728;2023-04-07T12:14:19;10.50;99.90
70368;DHT22;57789;53.868;10.728;2023-04-07T12:16:45;10.70;99.90
70368;DHT22;57789;53.868;10.728;2023-04-07T12:19:11;10.70;99.90
70368;DHT22;57789;53.868;10.728;2023-04-07T12:21:37;10.70;99.90
70368;DHT22;57789;53.868;10.728;2023-04-07T12:24:03;10.50;99.90
70368;DHT22;57789;53.868;10.728;2023-04-07T12:26:28;10.60;99.90
70368;DHT22;57789;53.868;10.728;2023-04-07T12:28:54;10.60;99.90
70368;DHT22;57789;53.868;10.728;2023-04-07T12:31:21;10.70;99.90
70368;DHT22;57789;53.868;10.728;2023-04-07T12:33:46;10.80;99.90
70368;DHT22;57789;53.868;10.728;2023-04-07T12:36:12;10.60;99.90
70368;DHT22;57789;53.868;10.728;2023-04-07T12:38:40;10.30;99.90
70368;DHT22;57789;53.868;10.728;2023-04-07T12:41:11;10.30;99.90
70368;DHT22;57789;53.868;10.728;2023-04-07T12:43:37;10.50;99.90
70368;DHT22;57789;53.868;10.728;2023-04-07T12:46:03;10.60;99.90
70368;DHT22;57789;53.868;10.728;2023-04-07T12:48:28;10.50;99.90
70368;DHT22;57789;53.868;10.728;2023-04-07T12:50:54;10.30;99.90
70368;DHT22;57789;53.868;10.728;2023-04-07T12:53:20;10.20;99.90
70368;DHT22;57789;53.868;10.728;2023-04-07T12:55:48;10.10;99.90
70368;DHT22;57789;53.868;10.728;2023-04-07T12:58:13;9.90;99.90
70368;DHT22;57789;53.868;10.728;2023-04-07T13:00:39;9.70;99.90
70368;DHT22;57789;53.868;10.728;2023-04-07T13:03:06;9.30;99.90
70368;DHT22;57789;53.868;10.728;2023-04-07T13:05:31;9.20;99.90
70368;DHT22;57789;53.868;10.728;2023-04-07T13:07:58;9.00;99.90
70368;DHT22;57789;53.868;10.728;2023-04-07T13:10:24;8.70;99.90
70368;DHT22;57789;53.868;10.728;2023-04-07T13:12:50;8.70;99.90
70368;DHT22;57789;53.868;10.728;2023-04-07T13:15:16;8.40;99.90
70368;DHT22;57789;53.868;10.728;2023-04-07T13:17:41;8.40;99.90
70368;DHT22;57789;53.868;10.728;2023-04-07T13:20:07;8.30;99.90
70368;DHT22;57789;53.868;10.728;2023-04-07T13:22:33;8.10;99.90
70368;DHT22;57789;53.868;10.728;2023-04-07T13:24:59;8.00;99.90
70368;DHT22;57789;53.868;10.728;2023-04-07T13:27:25;7.90;99.90
70368;DHT22;57789;53.868;10.728;2023-04-07T13:29:51;7.80;99.90
70368;DHT22;57789;53.868;10.728;2023-04-07T13:32:17;7.80;99.90
70368;DHT22;57789;53.868;10.728;2023-04-07T13:34:43;7.60;99.90
70368;DHT22;57789;53.868;10.728;2023-04-07T13:37:09;7.60;99.90
70368;DHT22;57789;53.868;10.728;2023-04-07T13:39:34;7.60;99.90
70368;DHT22;57789;53.868;10.728;2023-04-07T13:42:00;7.50;99.90
70368;DHT22;57789;53.868;10.728;2023-04-07T13:44:27;7.50;99.90
70368;DHT22;57789;53.868;10.728;2023-04-07T13:46:55;7.70;99.90
70368;DHT22;57789;53.868;10.728;2023-04-07T13:49:22;7.80;99.90
70368;DHT22;57789;53.868;10.728;2023-04-07T13:51:48;7.80;99.90
70368;DHT22;57789;53.868;10.728;2023-04-07T13:54:16;7.70;99.90
70368;DHT22;57789;53.868;10.728;2023-04-07T13:56:42;7.60;99.90
70368;DHT22;57789;53.868;10.728;2023-04-07T13:59:08;7.50;99.90
70368;DHT22;57789;53.868;10.728;2023-04-07T14:01:34;7.50;99.90
70368;DHT22;57789;53.868;10.728;2023-04-07T14:04:03;7.50;99.90
70368;DHT22;57789;53.868;10.728;2023-04-07T14:06:29;7.50;99.90
70368;DHT22;57789;53.868;10.728;2023-04-07T14:08:56;7.50;99.90
70368;DHT22;57789;53.868;10.728;2023-04-07T14:11:22;7.30;99.90
70368;DHT22;57789;53.868;10.728;2023-04-07T14:13:51;7.20;99.90
70368;DHT22;57789;53.868;10.728;2023-04-07T14:16:17;7.20;99.90
70368;DHT22;57789;53.868;10.728;2023-04-07T14:18:43;7.20;99.90
70368;DHT22;57789;53.868;10.728;2023-04-07T14:21:09;7.20;99.90
70368;DHT22;57789;53.868;10.728;2023-04-07T14:23:36;7.20;99.90
70368;DHT22;57789;53.868;10.728;2023-04-07T14:26:02;7.20;99.90
70368;DHT22;57789;53.868;10.728;2023-04-07T14:28:28;7.30;99.90
70368;DHT22;57789;53.868;10.728;2023-04-07T14:30:54;7.20;99.90
70368;DHT22;57789;53.868;10.728;2023-04-07T14:33:20;7.30;99.90
70368;DHT22;57789;53.868;10.728;2023-04-07T14:35:47;7.20;99.90
70368;DHT22;57789;53.868;10.728;2023-04-07T14:38:12;7.30;99.90
70368;DHT22;57789;53.868;10.728;2023-04-07T14:40:39;7.30;99.90
70368;DHT22;57789;53.868;10.728;2023-04-07T14:43:06;7.30;99.90
70368;DHT22;57789;53.868;10.728;2023-04-07T14:45:33;7.30;99.90
70368;DHT22;57789;53.868;10.728;2023-04-07T14:47:59;7.30;99.90
70368;DHT22;57789;53.868;10.728;2023-04-07T14:50:25;7.20;99.90
70368;DHT22;57789;53.868;10.728;2023-04-07T14:52:52;7.20;99.90
70368;DHT22;57789;53.868;10.728;2023-04-07T14:55:18;7.10;99.90
70368;DHT22;57789;53.868;10.728;2023-04-07T14:57:44;7.00;99.90
70368;DHT22;57789;53.868;10.728;2023-04-07T15:00:11;6.90;99.90
70368;DHT22;57789;53.868;10.728;2023-04-07T15:02:36;6.90;99.90
70368;DHT22;57789;53.868;10.728;2023-04-07T15:05:02;6.90;99.90
70368;DHT22;57789;53.868;10.728;2023-04-07T15:07:31;7.00;99.90
70368;DHT22;57789;53.868;10.728;2023-04-07T15:09:56;7.10;99.90
70368;DHT22;57789;53.868;10.728;2023-04-07T15:12:24;7.00;99.90
70368;DHT22;57789;53.868;10.728;2023-04-07T15:14:50;7.10;99.90
70368;DHT22;57789;53.868;10.728;2023-04-07T15:17:19;7.00;99.90
70368;DHT22;57789;53.868;10.728;2023-04-07T15:19:46;6.90;99.90
70368;DHT22;57789;53.868;10.728;2023-04-07T15:22:11;6.80;99.90
70368;DHT22;57789;53.868;10.728;2023-04-07T15:24:37;6.80;99.90
70368;DHT22;57789;53.868;10.728;2023-04-07T15:27:04;6.70;99.90
70368;DHT22;57789;53.868;10.728;2023-04-07T15:29:30;6.70;99.90
70368;DHT22;57789;53.868;10.728;2023-04-07T15:31:56;6.60;99.90
70368;DHT22;57789;53.868;10.728;2023-04-07T15:34:21;6.60;99.90
70368;DHT22;57789;53.868;10.728;2023-04-07T15:36:47;6.50;99.90
70368;DHT22;57789;53.868;10.728;2023-04-07T15:39:13;6.50;99.90
70368;DHT22;57789;53.868;10.728;2023-04-07T15:41:39;6.40;99.90
70368;DHT22;57789;53.868;10.728;2023-04-07T15:44:05;6.40;99.90
70368;DHT22;57789;53.868;10.728;2023-04-07T15:46:31;6.40;99.90
70368;DHT22;57789;53.868;10.728;2023-04-07T15:48:57;6.30;99.90